Noatak Airport Noatak US
ICAO: PAWN
IATA:
Category: Medium
Scheduled Services:

Elevation: 88 ft
TransAlt. 18000 ft.

Airport Communications:
AWOS 3:135.75
ANCHORAGE CNTR:119.2
KOTZEBUE RDO:122.4
CTAF/UNICOM:122.8

PAWN Zoom In..

If you have problems with the map follow the link
https://www.worldairports.se/pages/airport.php?
ICAO=PAWN

Runways:

(A) RW 01 length 3992 ft width 60 ft
---- / hdg 7

(B) RW 19 length 3992 ft width 60 ft
---- / hdg 187

Location; PAWN
Day. 18 / Time. 01.56 Zulu
* Altimeter: 29.63
* Temperature: -06° c. -21.2°f.
* Wind from: 010° Speed 08 kn.
Dewpoint: -10° c.
Visibility: 10 Statute Miles.
Clouds: Clear (automated report).

PAWN 180156Z AUTO 01008KT 10SM CLR M06/M10 A2963 RMK AO2 SLP047 T10611100 FZRANO


Wind From 010°
Speed 08 kn.

 
 
jpsmedia.com for Web Design worldairports.se 2019   terms of use